Time;durP1;ratioP1;P1;durP2;ratioP2;P2;SDS_P1;SDS_P2;PMS_P1;PMS_P2;Temp;Humidity;BMP_temperature;BMP_pressure;BME280_temperature;BME280_humidity;BME280_pressure;Samples;Min_cycle;Max_cycle;Signal;HPM_P1;HPM_P2
2021/05/22 00:00:34;;;;;;;4.43;2.00;;;21.80;77.80;;;;;;4987580;28;20597;-76
2021/05/22 00:03:02;;;;;;;5.00;2.63;;;21.90;77.30;;;;;;4993428;28;20030;-76
2021/05/22 00:05:29;;;;;;;7.32;2.75;;;22.40;75.20;;;;;;4992126;28;20086;-76
2021/05/22 00:07:56;;;;;;;3.30;1.90;;;22.50;75.10;;;;;;4993703;28;20025;-77
2021/05/22 00:10:24;;;;;;;3.10;2.40;;;22.60;75.80;;;;;;4996436;28;20077;-76
2021/05/22 00:12:51;;;;;;;2.90;2.13;;;22.80;71.90;;;;;;5001391;28;20068;-76
2021/05/22 00:15:20;;;;;;;3.63;1.52;;;23.20;71.70;;;;;;4990736;28;20488;-77
2021/05/22 00:17:48;;;;;;;3.42;2.13;;;23.10;72.20;;;;;;4988059;28;20027;-77
2021/05/22 00:20:15;;;;;;;4.30;2.38;;;23.30;71.30;;;;;;4992055;28;20033;-77
2021/05/22 00:22:44;;;;;;;5.35;3.03;;;23.50;71.90;;;;;;4999862;28;20034;-77
2021/05/22 00:25:13;;;;;;;2.10;1.65;;;23.70;71.80;;;;;;4991442;28;20046;-77
2021/05/22 00:27:41;;;;;;;2.10;1.60;;;23.80;69.10;;;;;;4993226;28;20034;-76
2021/05/22 00:30:10;;;;;;;3.10;1.77;;;23.80;69.50;;;;;;4989625;28;20038;-76
2021/05/22 00:32:38;;;;;;;2.90;1.73;;;23.60;71.30;;;;;;4998092;28;20028;-75
2021/05/22 00:35:06;;;;;;;3.40;1.60;;;23.80;74.00;;;;;;4992094;28;20027;-76
2021/05/22 00:37:33;;;;;;;2.05;1.83;;;24.00;69.60;;;;;;4996883;28;20031;-77
2021/05/22 00:40:01;;;;;;;2.10;1.42;;;24.10;67.80;;;;;;4990403;28;20018;-77
2021/05/22 00:42:29;;;;;;;1.60;1.23;;;24.30;67.50;;;;;;4995084;28;20034;-76
2021/05/22 00:45:14;;;;;;;2.25;1.48;;;24.50;67.00;;;;;;4990967;28;20022;-76
2021/05/22 00:47:48;;;;;;;7.20;2.05;;;24.40;66.90;;;;;;4999405;28;20544;-76
2021/05/22 00:50:25;;;;;;;2.80;1.50;;;24.60;64.60;;;;;;4991201;28;20042;-75
2021/05/22 00:52:53;;;;;;;4.40;1.52;;;25.00;64.80;;;;;;4999895;28;20018;-76
2021/05/22 00:55:21;;;;;;;3.25;0.95;;;25.10;64.70;;;;;;4993400;28;20057;-76
2021/05/22 00:57:49;;;;;;;1.83;1.42;;;25.60;66.40;;;;;;4997260;28;20060;-78
2021/05/22 01:00:41;;;;;;;3.08;1.83;;;25.70;61.60;;;;;;4989305;28;20037;-78
2021/05/22 01:03:10;;;;;;;2.47;0.85;;;26.10;60.00;;;;;;4991315;28;20065;-78
2021/05/22 01:05:42;;;;;;;2.75;1.05;;;25.70;63.90;;;;;;4993074;28;20117;-77
2021/05/22 01:08:23;;;;;;;4.88;1.33;;;26.10;61.90;;;;;;4997512;28;20068;-77
2021/05/22 01:11:04;;;;;;;1.75;0.80;;;26.30;58.80;;;;;;4998618;28;20096;-78
2021/05/22 01:13:38;;;;;;;2.17;0.80;;;26.00;55.10;;;;;;4999373;28;20038;-78
2021/05/22 01:16:07;;;;;;;2.38;0.95;;;25.80;57.40;;;;;;4992676;28;20017;-78
2021/05/22 01:18:35;;;;;;;5.65;0.98;;;26.10;56.80;;;;;;4999006;28;20030;-78
2021/05/22 01:21:06;;;;;;;4.25;0.88;;;26.20;52.80;;;;;;4995852;28;20052;-78
2021/05/22 01:24:03;;;;;;;2.75;0.82;;;26.40;52.80;;;;;;4995601;28;20048;-78
2021/05/22 01:26:32;;;;;;;3.42;1.20;;;26.40;55.20;;;;;;4994994;28;20141;-78
2021/05/22 01:29:00;;;;;;;4.68;1.10;;;26.70;55.90;;;;;;4992985;28;20032;-77
2021/05/22 01:31:28;;;;;;;3.25;1.05;;;27.10;53.30;;;;;;4997094;28;20049;-77
2021/05/22 01:33:55;;;;;;;2.08;0.52;;;27.40;51.50;;;;;;4993135;28;20095;-78
2021/05/22 01:36:23;;;;;;;2.40;1.15;;;27.30;47.30;;;;;;4997219;28;20061;-77
2021/05/22 01:38:50;;;;;;;3.17;1.13;;;27.20;50.20;;;;;;4999046;28;20030;-76
2021/05/22 01:41:18;;;;;;;1.00;0.50;;;26.70;52.00;;;;;;4993922;28;20112;-78
2021/05/22 01:43:50;;;;;;;4.00;0.80;;;27.00;54.10;;;;;;4995166;28;20049;-77
2021/05/22 01:46:18;;;;;;;3.35;0.80;;;27.30;52.80;;;;;;4993775;28;20101;-78
2021/05/22 01:48:47;;;;;;;2.55;0.60;;;27.20;52.40;;;;;;4996499;28;20022;-77
2021/05/22 01:51:16;;;;;;;1.98;0.70;;;26.90;52.80;;;;;;4992530;28;20145;-76
2021/05/22 01:53:44;;;;;;;4.35;0.85;;;26.90;53.00;;;;;;4994917;28;20097;-77
2021/05/22 01:56:13;;;;;;;2.78;0.88;;;27.40;53.40;;;;;;4988553;28;20034;-76
2021/05/22 01:58:40;;;;;;;2.42;0.80;;;27.40;55.00;;;;;;4996863;28;20160;-72
2021/05/22 02:01:12;;;;;;;2.10;0.77;;;27.60;50.30;;;;;;4990739;28;20098;-73
2021/05/22 02:03:48;;;;;;;1.67;0.75;;;27.40;52.00;;;;;;4994540;28;20052;-75
2021/05/22 02:06:28;;;;;;;2.00;0.70;;;27.60;52.70;;;;;;4986169;28;20081;-75
2021/05/22 02:09:01;;;;;;;0.93;0.55;;;27.60;50.80;;;;;;4993061;28;20030;-73
2021/05/22 02:11:33;;;;;;;2.83;0.68;;;27.80;52.90;;;;;;4988395;28;20057;-75
2021/05/22 02:14:03;;;;;;;2.65;0.70;;;27.90;49.70;;;;;;4994479;28;20022;-73
2021/05/22 02:16:35;;;;;;;1.75;0.73;;;28.00;52.50;;;;;;4992549;28;20031;-75
2021/05/22 02:19:08;;;;;;;2.05;0.68;;;27.60;51.50;;;;;;4993292;28;20022;-73
2021/05/22 02:21:39;;;;;;;2.80;0.95;;;27.80;53.60;;;;;;4986709;28;20045;-73
2021/05/22 02:24:07;;;;;;;1.60;0.45;;;27.30;52.50;;;;;;4998808;28;20081;-74
2021/05/22 02:26:35;;;;;;;3.30;0.60;;;27.70;53.90;;;;;;4995316;28;20157;-73
2021/05/22 02:29:04;;;;;;;5.70;0.95;;;27.50;52.10;;;;;;4992980;28;20050;-71
2021/05/22 02:31:35;;;;;;;1.10;0.60;;;27.50;50.60;;;;;;4992869;28;20046;-73
2021/05/22 02:34:04;;;;;;;2.15;0.85;;;27.30;51.50;;;;;;4995016;28;20043;-72
2021/05/22 02:36:32;;;;;;;1.98;0.50;;;26.90;51.00;;;;;;4990545;28;20026;-72
2021/05/22 02:39:01;;;;;;;1.77;0.68;;;26.80;50.40;;;;;;4986364;28;20037;-74
2021/05/22 02:41:30;;;;;;;2.20;0.68;;;26.90;50.60;;;;;;4992406;28;20034;-75
2021/05/22 02:44:00;;;;;;;3.40;0.82;;;26.40;49.60;;;;;;4996264;28;20029;-74
2021/05/22 02:46:32;;;;;;;1.65;0.55;;;26.40;51.90;;;;;;4992617;28;20057;-73
2021/05/22 02:49:00;;;;;;;2.30;0.50;;;26.20;51.90;;;;;;4994261;28;20568;-73
2021/05/22 02:51:29;;;;;;;2.10;1.00;;;26.50;51.80;;;;;;4991767;28;20545;-71
2021/05/22 02:54:00;;;;;;;4.22;0.77;;;26.60;50.50;;;;;;4997610;28;20499;-73
2021/05/22 02:56:29;;;;;;;2.75;0.50;;;26.40;51.40;;;;;;4989388;28;20040;-72
2021/05/22 02:58:57;;;;;;;1.65;0.80;;;26.30;50.70;;;;;;4997408;28;20014;-72
2021/05/22 03:01:26;;;;;;;3.35;0.77;;;26.20;50.80;;;;;;4992542;28;20594;-72
2021/05/22 03:03:56;;;;;;;2.50;0.40;;;26.20;50.90;;;;;;4993746;28;20333;-70
2021/05/22 03:06:24;;;;;;;3.83;0.85;;;26.30;53.10;;;;;;4994198;28;20038;-71
2021/05/22 03:08:52;;;;;;;3.67;0.75;;;26.20;52.70;;;;;;4993510;28;20026;-71
2021/05/22 03:11:22;;;;;;;2.17;0.50;;;26.00;52.30;;;;;;4987508;28;20038;-72
2021/05/22 03:13:50;;;;;;;2.88;0.50;;;25.40;53.50;;;;;;4990301;28;20022;-71
2021/05/22 03:16:19;;;;;;;2.70;0.45;;;25.20;56.10;;;;;;4992697;28;20054;-72
2021/05/22 03:18:46;;;;;;;3.20;0.47;;;25.30;53.10;;;;;;4993672;28;20450;-71
2021/05/22 03:21:13;;;;;;;2.28;0.70;;;25.40;53.30;;;;;;4995641;28;20032;-71
2021/05/22 03:23:41;;;;;;;3.55;0.47;;;25.30;54.70;;;;;;4993555;28;20030;-72
2021/05/22 03:26:09;;;;;;;2.08;0.57;;;25.20;56.00;;;;;;4996592;28;20496;-71
2021/05/22 03:28:36;;;;;;;3.53;0.88;;;24.80;52.90;;;;;;4987256;28;20022;-73
2021/05/22 03:31:04;;;;;;;2.70;0.40;;;24.40;55.60;;;;;;4995894;28;20040;-71
2021/05/22 03:33:31;;;;;;;5.13;0.93;;;24.10;57.80;;;;;;4993068;28;20474;-71
2021/05/22 03:35:58;;;;;;;1.98;0.60;;;24.00;56.50;;;;;;4995698;28;20120;-72
2021/05/22 03:38:26;;;;;;;1.48;0.52;;;23.40;58.00;;;;;;4992109;28;20389;-71
2021/05/22 03:40:53;;;;;;;3.10;0.93;;;22.70;59.00;;;;;;4991011;28;20557;-71
2021/05/22 03:43:21;;;;;;;1.65;0.43;;;22.60;62.40;;;;;;4993018;28;20385;-71
2021/05/22 03:45:48;;;;;;;3.08;0.77;;;22.40;60.60;;;;;;4990049;28;20026;-71
2021/05/22 03:48:16;;;;;;;3.40;1.25;;;21.90;60.40;;;;;;4992349;28;20116;-72
2021/05/22 03:50:43;;;;;;;2.95;1.08;;;21.60;63.50;;;;;;4987710;28;20116;-72
2021/05/22 03:53:11;;;;;;;2.58;0.85;;;21.50;64.50;;;;;;4988532;28;20033;-71
2021/05/22 03:55:39;;;;;;;2.05;0.70;;;21.40;63.30;;;;;;4989478;28;20275;-70
2021/05/22 03:58:07;;;;;;;2.03;0.50;;;21.20;63.70;;;;;;5001072;28;20029;-72
2021/05/22 04:00:35;;;;;;;2.92;0.60;;;21.00;63.60;;;;;;4989074;28;20551;-72
2021/05/22 04:03:05;;;;;;;3.60;1.13;;;20.60;63.90;;;;;;4993622;28;20036;-72
2021/05/22 04:05:34;;;;;;;6.93;1.08;;;20.30;65.00;;;;;;4988661;28;20034;-71
2021/05/22 04:08:07;;;;;;;1.50;0.50;;;20.30;65.00;;;;;;4990028;28;20377;-72
2021/05/22 04:10:35;;;;;;;1.60;0.60;;;20.20;66.30;;;;;;4994432;28;20038;-72
2021/05/22 04:13:02;;;;;;;1.13;0.52;;;20.30;66.40;;;;;;4996125;28;20469;-71
2021/05/22 04:15:29;;;;;;;2.28;0.70;;;20.30;66.80;;;;;;4992815;28;20390;-71
2021/05/22 04:17:57;;;;;;;2.20;0.57;;;20.40;67.10;;;;;;4994505;28;20057;-71
2021/05/22 04:20:24;;;;;;;1.48;0.50;;;20.60;66.60;;;;;;4995910;28;20049;-70
2021/05/22 04:22:52;;;;;;;4.78;1.58;;;20.60;67.50;;;;;;5000019;28;20368;-71
2021/05/22 04:25:19;;;;;;;3.03;0.65;;;20.50;66.30;;;;;;4994706;28;20034;-71
2021/05/22 04:27:47;;;;;;;3.75;0.50;;;20.60;67.50;;;;;;4993542;28;20018;-70
2021/05/22 04:30:15;;;;;;;5.35;0.80;;;20.80;66.40;;;;;;4989019;28;20096;-71
2021/05/22 04:32:42;;;;;;;4.68;1.58;;;20.70;66.60;;;;;;4990873;28;20038;-73
2021/05/22 04:35:10;;;;;;;4.13;0.90;;;20.40;66.30;;;;;;4995197;28;20030;-71
2021/05/22 04:37:37;;;;;;;4.53;1.02;;;20.30;66.80;;;;;;4996614;28;20401;-71
2021/05/22 04:40:06;;;;;;;0.75;0.30;;;20.30;67.90;;;;;;4993615;28;20425;-72
2021/05/22 04:42:35;;;;;;;3.22;0.65;;;20.10;67.10;;;;;;5000175;28;20031;-71
2021/05/22 04:45:03;;;;;;;1.55;0.60;;;20.10;68.10;;;;;;4997173;28;20038;-71
2021/05/22 04:47:30;;;;;;;2.78;0.60;;;19.90;67.80;;;;;;4995504;28;20041;-71
2021/05/22 04:49:57;;;;;;;1.27;0.40;;;19.80;69.30;;;;;;4997426;28;20627;-71
2021/05/22 04:52:25;;;;;;;6.72;1.50;;;19.80;69.60;;;;;;4999575;28;20097;-72
2021/05/22 04:54:52;;;;;;;1.17;0.43;;;19.60;68.90;;;;;;5000166;28;20101;-73
2021/05/22 04:57:20;;;;;;;2.45;1.05;;;19.70;69.80;;;;;;4998093;28;20035;-72
2021/05/22 04:59:47;;;;;;;1.67;0.95;;;19.60;69.20;;;;;;4999282;28;20221;-72
2021/05/22 05:02:15;;;;;;;3.60;1.25;;;19.70;70.50;;;;;;5003443;28;20059;-72
2021/05/22 05:04:42;;;;;;;2.30;0.70;;;19.80;69.80;;;;;;5004491;28;20033;-71
2021/05/22 05:07:10;;;;;;;5.07;1.33;;;19.80;69.80;;;;;;4994584;28;20436;-71
2021/05/22 05:09:38;;;;;;;2.83;0.93;;;19.80;69.70;;;;;;4995962;28;20038;-71
2021/05/22 05:12:07;;;;;;;9.18;1.08;;;19.70;69.70;;;;;;4995189;28;20030;-69
2021/05/22 05:14:35;;;;;;;3.35;0.57;;;19.70;70.60;;;;;;4996260;28;20022;-72
2021/05/22 05:17:02;;;;;;;2.13;0.45;;;19.80;70.30;;;;;;4998633;28;20040;-71
2021/05/22 05:19:31;;;;;;;3.90;0.50;;;19.80;70.30;;;;;;5003876;28;20026;-70
2021/05/22 05:21:59;;;;;;;5.72;0.65;;;19.90;71.10;;;;;;4999054;28;20112;-73
2021/05/22 05:24:27;;;;;;;6.53;0.80;;;19.90;70.50;;;;;;5001263;28;20022;-70
2021/05/22 05:26:55;;;;;;;2.72;0.85;;;19.90;71.80;;;;;;5003032;28;20045;-69
2021/05/22 05:29:22;;;;;;;3.10;0.50;;;19.90;71.80;;;;;;5003452;28;20029;-70
2021/05/22 05:31:49;;;;;;;2.22;0.55;;;19.90;71.90;;;;;;4999353;28;20054;-70
2021/05/22 05:34:17;;;;;;;2.20;0.50;;;19.80;72.20;;;;;;4992050;28;20058;-69
2021/05/22 05:36:44;;;;;;;3.65;0.82;;;19.70;71.20;;;;;;4995147;28;20358;-70
2021/05/22 05:39:13;;;;;;;1.40;0.43;;;19.60;72.10;;;;;;5001653;28;20018;-69
2021/05/22 05:41:41;;;;;;;4.78;1.05;;;19.80;71.50;;;;;;5000574;28;20041;-71
2021/05/22 05:44:08;;;;;;;3.08;1.08;;;19.80;71.80;;;;;;5005642;28;20038;-70
2021/05/22 05:46:35;;;;;;;2.22;0.90;;;19.90;73.10;;;;;;4999372;28;20022;-71
2021/05/22 05:49:03;;;;;;;6.38;1.80;;;19.80;72.40;;;;;;5001979;28;20042;-73
2021/05/22 05:51:30;;;;;;;2.10;0.90;;;19.80;70.10;;;;;;4994234;28;20503;-71
2021/05/22 05:53:57;;;;;;;2.90;0.80;;;19.70;71.90;;;;;;4995510;28;20354;-71
2021/05/22 05:56:25;;;;;;;1.58;0.50;;;19.80;71.70;;;;;;4991462;28;20031;-74
2021/05/22 05:58:52;;;;;;;3.75;0.75;;;19.70;72.00;;;;;;4997341;28;20089;-72
2021/05/22 06:01:19;;;;;;;1.73;0.68;;;19.80;72.20;;;;;;4994621;28;20028;-70
2021/05/22 06:03:48;;;;;;;1.48;0.50;;;19.90;71.60;;;;;;4998915;28;20531;-71
2021/05/22 06:06:16;;;;;;;4.13;0.88;;;20.10;71.50;;;;;;4990800;28;20080;-73
2021/05/22 06:08:43;;;;;;;3.10;1.55;;;20.20;71.50;;;;;;4998380;28;20477;-74
2021/05/22 06:11:13;;;;;;;5.07;0.90;;;20.30;71.10;;;;;;4994239;28;20498;-71
2021/05/22 06:13:42;;;;;;;2.53;0.68;;;20.40;71.20;;;;;;5000765;28;20498;-73
2021/05/22 06:18:38;;;;;;;2.80;0.90;;;20.40;70.80;;;;;;4999059;28;20030;-77
2021/05/22 06:21:07;;;;;;;1.75;0.55;;;20.40;70.80;;;;;;4992951;28;20065;-71
2021/05/22 06:23:36;;;;;;;4.55;0.60;;;20.50;70.30;;;;;;4997542;28;20105;-71
2021/05/22 06:26:04;;;;;;;3.20;0.68;;;20.40;70.80;;;;;;4985170;28;20185;-72
2021/05/22 06:28:32;;;;;;;1.63;0.60;;;20.40;70.40;;;;;;4992515;28;20136;-73
2021/05/22 06:31:01;;;;;;;3.15;1.50;;;20.30;70.60;;;;;;5001265;28;20042;-70
2021/05/22 06:33:29;;;;;;;2.17;0.70;;;20.20;70.80;;;;;;4991458;28;20068;-71
2021/05/22 06:35:57;;;;;;;1.33;0.65;;;20.00;71.80;;;;;;4997169;28;20022;-72
2021/05/22 06:38:25;;;;;;;3.17;0.90;;;19.80;73.50;;;;;;4999765;28;20040;-71
2021/05/22 06:40:53;;;;;;;2.00;0.50;;;19.50;74.20;;;;;;4996924;28;20026;-71
2021/05/22 06:43:20;;;;;;;3.83;0.82;;;19.30;74.60;;;;;;4994679;28;20030;-74
2021/05/22 06:45:58;;;;;;;0.80;0.55;;;19.10;75.50;;;;;;4984273;28;20031;-71
2021/05/22 06:48:26;;;;;;;5.35;0.82;;;19.00;76.40;;;;;;4993803;28;20041;-78
2021/05/22 06:50:54;;;;;;;1.38;1.05;;;18.80;77.60;;;;;;4999563;28;20042;-77
2021/05/22 06:53:22;;;;;;;2.50;0.80;;;18.60;78.70;;;;;;4996869;28;20022;-76
2021/05/22 06:55:49;;;;;;;2.85;0.70;;;18.30;80.10;;;;;;4994590;28;20026;-75
2021/05/22 06:58:18;;;;;;;3.97;0.82;;;18.10;81.20;;;;;;4990828;28;20042;-77
2021/05/22 07:00:46;;;;;;;3.50;0.80;;;18.00;81.00;;;;;;4997805;28;20037;-75
2021/05/22 07:03:14;;;;;;;4.97;1.05;;;17.90;82.60;;;;;;4997049;28;20117;-75
2021/05/22 07:05:41;;;;;;;2.97;0.70;;;17.70;84.10;;;;;;4995500;28;20030;-76
2021/05/22 07:08:09;;;;;;;1.63;0.82;;;17.50;84.10;;;;;;4999413;28;20083;-76
2021/05/22 07:10:36;;;;;;;2.45;1.13;;;17.40;85.60;;;;;;4991769;28;20093;-76
2021/05/22 07:13:05;;;;;;;2.63;1.02;;;17.20;86.00;;;;;;4998950;28;20119;-74
2021/05/22 07:15:32;;;;;;;3.20;1.92;;;17.10;86.40;;;;;;4988205;28;20042;-73
2021/05/22 07:17:59;;;;;;;3.63;1.55;;;16.90;87.10;;;;;;5001237;28;20428;-74
2021/05/22 07:20:27;;;;;;;3.70;1.20;;;16.80;88.00;;;;;;4996880;28;20022;-75
2021/05/22 07:22:55;;;;;;;2.97;1.65;;;16.80;88.30;;;;;;4997575;28;20066;-75
2021/05/22 07:25:23;;;;;;;5.03;1.60;;;16.70;89.10;;;;;;4997480;28;20120;-75
2021/05/22 07:27:52;;;;;;;4.43;1.63;;;16.60;89.30;;;;;;4995595;28;20033;-78
2021/05/22 07:30:21;;;;;;;3.22;1.48;;;16.50;90.00;;;;;;4995858;28;20042;-76
2021/05/22 07:32:49;;;;;;;4.63;2.63;;;16.50;90.10;;;;;;4995930;28;20366;-76
2021/05/22 07:35:17;;;;;;;4.15;2.28;;;16.30;90.10;;;;;;4996353;28;20060;-76
2021/05/22 07:37:45;;;;;;;9.48;3.58;;;16.20;90.30;;;;;;4999450;28;20025;-77
2021/05/22 07:40:13;;;;;;;8.32;3.35;;;16.10;90.80;;;;;;4994659;28;20420;-75
2021/05/22 07:42:47;;;;;;;5.28;2.42;;;16.10;91.10;;;;;;4996804;28;20033;-74
2021/05/22 07:45:15;;;;;;;6.60;2.58;;;16.00;90.90;;;;;;4994024;28;20034;-74
2021/05/22 07:47:43;;;;;;;6.35;2.20;;;16.00;90.70;;;;;;4999291;28;20099;-74
2021/05/22 07:50:11;;;;;;;4.28;2.53;;;16.00;91.00;;;;;;4992656;28;20447;-74
2021/05/22 07:52:40;;;;;;;3.33;2.20;;;16.00;90.80;;;;;;5000364;28;20026;-74
2021/05/22 07:55:10;;;;;;;9.98;2.95;;;15.90;91.20;;;;;;4993126;28;20421;-75
2021/05/22 07:57:38;;;;;;;7.88;2.50;;;15.90;91.20;;;;;;4998755;28;20474;-75
2021/05/22 08:00:07;;;;;;;10.93;3.97;;;15.80;91.50;;;;;;4994098;28;20038;-74
2021/05/22 08:02:36;;;;;;;9.32;4.10;;;15.70;91.50;;;;;;5000435;28;20464;-74
2021/05/22 08:05:07;;;;;;;6.72;3.42;;;15.60;91.60;;;;;;4997447;28;20027;-74
2021/05/22 08:07:35;;;;;;;11.35;6.25;;;15.60;91.90;;;;;;4995480;28;20045;-76
2021/05/22 08:10:06;;;;;;;12.07;6.22;;;15.50;92.00;;;;;;4995896;28;20114;-76
2021/05/22 08:12:34;;;;;;;9.50;4.85;;;15.50;92.30;;;;;;5002188;28;20111;-76
2021/05/22 08:15:02;;;;;;;7.43;4.10;;;15.40;92.40;;;;;;4995106;28;20025;-76
2021/05/22 08:17:30;;;;;;;12.18;4.53;;;15.40;92.70;;;;;;4997911;28;20026;-76
2021/05/22 08:19:57;;;;;;;8.18;4.05;;;15.30;93.10;;;;;;5002929;28;20047;-76
2021/05/22 08:22:25;;;;;;;11.48;4.70;;;15.30;93.10;;;;;;5005775;28;20053;-74
2021/05/22 08:24:52;;;;;;;7.63;3.25;;;15.20;93.40;;;;;;4998655;28;20084;-77
2021/05/22 08:27:21;;;;;;;9.77;4.72;;;15.20;93.60;;;;;;4999704;28;20071;-75
2021/05/22 08:29:49;;;;;;;7.30;4.20;;;15.10;93.80;;;;;;5002088;28;20096;-75
2021/05/22 08:32:16;;;;;;;8.68;5.13;;;15.00;93.80;;;;;;5006829;28;20040;-75
2021/05/22 08:34:44;;;;;;;10.00;5.65;;;15.00;94.10;;;;;;4999944;28;20495;-76
2021/05/22 08:37:13;;;;;;;8.88;5.95;;;14.90;94.10;;;;;;5003235;28;20068;-75
2021/05/22 08:39:44;;;;;;;8.80;6.18;;;14.80;94.40;;;;;;5001250;28;20033;-77
2021/05/22 08:42:38;;;;;;;9.98;5.43;;;14.80;94.50;;;;;;5004320;28;20045;-76
2021/05/22 08:45:09;;;;;;;11.90;6.32;;;14.80;94.70;;;;;;5000395;28;20022;-77
2021/05/22 08:47:37;;;;;;;11.77;7.10;;;14.70;95.00;;;;;;4996522;28;20034;-77
2021/05/22 08:50:07;;;;;;;8.75;5.90;;;14.60;95.00;;;;;;4999654;28;20030;-77
2021/05/22 08:52:35;;;;;;;13.57;6.55;;;14.60;95.30;;;;;;5000205;28;20036;-75
2021/05/22 08:55:04;;;;;;;11.93;5.63;;;14.60;95.40;;;;;;5000702;28;20030;-75
2021/05/22 08:57:31;;;;;;;15.15;6.45;;;14.50;95.30;;;;;;4997538;28;20326;-75
2021/05/22 08:59:59;;;;;;;7.10;4.95;;;14.50;95.30;;;;;;4994139;28;20026;-76
2021/05/22 09:02:27;;;;;;;9.85;5.20;;;14.40;95.50;;;;;;5000334;28;20022;-75
2021/05/22 09:05:06;;;;;;;8.95;5.28;;;14.30;95.70;;;;;;4995763;28;20030;-73
2021/05/22 09:07:36;;;;;;;9.23;5.63;;;14.20;95.60;;;;;;4996004;28;20037;-78
2021/05/22 09:10:26;;;;;;;8.68;5.35;;;14.10;95.50;;;;;;4995895;28;20481;-76
2021/05/22 09:12:59;;;;;;;10.10;5.50;;;14.00;95.60;;;;;;4992553;28;20061;-75
2021/05/22 09:15:33;;;;;;;9.80;6.10;;;14.00;95.70;;;;;;4998888;28;20037;-76
2021/05/22 09:18:13;;;;;;;14.20;6.65;;;13.90;95.80;;;;;;5000630;28;20101;-78
2021/05/22 09:20:52;;;;;;;13.07;6.30;;;13.90;96.00;;;;;;5003122;28;20029;-76
2021/05/22 09:23:23;;;;;;;11.55;7.90;;;13.80;96.30;;;;;;4995762;28;20042;-79
2021/05/22 09:25:53;;;;;;;12.57;7.43;;;13.80;96.10;;;;;;4998696;28;20682;-77
2021/05/22 09:28:28;;;;;;;16.05;8.55;;;13.70;96.10;;;;;;5000044;28;20539;-76
2021/05/22 09:30:57;;;;;;;11.95;7.32;;;13.60;96.30;;;;;;4997949;28;20453;-75
2021/05/22 09:33:27;;;;;;;17.02;7.47;;;13.60;96.60;;;;;;4996157;28;20493;-74
2021/05/22 09:35:56;;;;;;;13.63;7.63;;;13.60;96.70;;;;;;4994930;28;20057;-77
2021/05/22 09:38:36;;;;;;;13.13;7.25;;;13.50;96.80;;;;;;5004773;28;20151;-76
2021/05/22 09:41:24;;;;;;;16.67;7.47;;;13.50;96.80;;;;;;5001019;28;20034;-75
2021/05/22 09:44:11;;;;;;;11.45;6.72;;;13.40;96.70;;;;;;4998728;28;20495;-76
2021/05/22 09:46:50;;;;;;;13.13;6.50;;;13.40;97.10;;;;;;5000226;28;20036;-75
2021/05/22 09:49:31;;;;;;;13.77;7.60;;;13.30;97.00;;;;;;4998361;28;20437;-76
2021/05/22 09:52:17;;;;;;;13.50;7.60;;;13.30;97.00;;;;;;5001235;28;20033;-75
2021/05/22 09:54:50;;;;;;;12.90;8.00;;;13.20;97.10;;;;;;4996136;28;20117;-78
2021/05/22 09:57:38;;;;;;;13.48;7.47;;;13.20;97.70;;;;;;5000052;28;20040;-77
2021/05/22 10:00:17;;;;;;;18.70;7.82;;;13.20;97.40;;;;;;4994848;28;20022;-76
2021/05/22 10:02:52;;;;;;;12.27;7.30;;;13.10;97.40;;;;;;5001783;28;20171;-75
2021/05/22 10:05:34;;;;;;;12.50;5.93;;;13.00;97.50;;;;;;4997605;28;20046;-77
2021/05/22 10:08:05;;;;;;;12.90;5.75;;;13.00;97.50;;;;;;5002888;28;20034;-76
2021/05/22 10:10:46;;;;;;;11.98;5.28;;;13.00;97.70;;;;;;4998866;28;20528;-77
2021/05/22 10:13:15;;;;;;;12.27;5.82;;;12.90;97.70;;;;;;4997593;28;20100;-77
2021/05/22 10:15:43;;;;;;;12.65;5.85;;;12.90;97.90;;;;;;4992399;28;20022;-75
2021/05/22 10:18:12;;;;;;;11.48;6.50;;;12.90;98.00;;;;;;4991579;28;20028;-78
2021/05/22 10:20:41;;;;;;;14.23;5.38;;;12.90;98.10;;;;;;4992449;28;20125;-77
2021/05/22 10:23:09;;;;;;;10.27;4.38;;;12.80;98.00;;;;;;4994815;28;20026;-77
2021/05/22 10:25:37;;;;;;;10.68;4.93;;;12.80;98.20;;;;;;4991508;28;20089;-76
2021/05/22 10:28:05;;;;;;;8.25;5.35;;;12.80;98.40;;;;;;4998159;28;20034;-75
2021/05/22 10:30:33;;;;;;;10.65;5.63;;;12.80;98.20;;;;;;5000176;28;20762;-78
2021/05/22 10:33:06;;;;;;;8.40;5.03;;;12.80;98.80;;;;;;5003840;28;20026;-79
2021/05/22 10:35:48;;;;;;;8.95;5.22;;;12.80;98.80;;;;;;4998409;28;20138;-82
2021/05/22 10:38:33;;;;;;;8.45;4.93;;;12.80;98.90;;;;;;4996696;28;20026;-77
2021/05/22 10:41:15;;;;;;;13.07;6.55;;;12.70;98.50;;;;;;5001378;28;20038;-79
2021/05/22 10:44:00;;;;;;;14.20;9.07;;;12.70;98.60;;;;;;4998976;28;20025;-80
2021/05/22 10:46:28;;;;;;;16.83;10.23;;;12.70;99.10;;;;;;4986173;28;20045;-75
2021/05/22 10:49:02;;;;;;;10.07;7.32;;;12.70;99.60;;;;;;4998285;28;20030;-74
2021/05/22 10:51:33;;;;;;;9.60;6.32;;;12.80;99.70;;;;;;4988886;28;20074;-77
2021/05/22 10:54:04;;;;;;;11.77;6.82;;;12.80;99.70;;;;;;4996497;28;20072;-78
2021/05/22 10:56:31;;;;;;;12.05;7.05;;;12.80;99.70;;;;;;4993293;28;20385;-76
2021/05/22 10:58:59;;;;;;;7.55;5.60;;;12.70;99.60;;;;;;4997373;28;20093;-76
2021/05/22 11:01:28;;;;;;;11.13;6.25;;;12.70;99.60;;;;;;4994451;28;20042;-76
2021/05/22 11:04:12;;;;;;;8.50;4.93;;;12.70;99.50;;;;;;4992315;28;20029;-76
2021/05/22 11:06:40;;;;;;;8.35;5.30;;;12.70;99.50;;;;;;4990683;28;20022;-76
2021/05/22 11:09:29;;;;;;;8.35;5.68;;;12.70;99.50;;;;;;4991229;28;20026;-76
2021/05/22 11:12:01;;;;;;;12.05;6.03;;;12.60;99.60;;;;;;4996085;28;20065;-74
2021/05/22 11:14:44;;;;;;;11.43;6.43;;;12.60;99.60;;;;;;4999310;28;20034;-75
2021/05/22 11:17:26;;;;;;;11.77;6.68;;;12.60;99.90;;;;;;4996198;28;20425;-75
2021/05/22 11:20:03;;;;;;;11.80;6.53;;;12.60;99.70;;;;;;4992855;28;20520;-74
2021/05/22 11:23:00;;;;;;;11.32;7.63;;;12.50;99.70;;;;;;4993752;28;20049;-75
2021/05/22 11:25:48;;;;;;;10.93;7.82;;;12.50;99.80;;;;;;4993549;28;20500;-76
2021/05/22 11:28:20;;;;;;;12.50;8.25;;;12.40;99.70;;;;;;4995633;28;20125;-76
2021/05/22 11:30:53;;;;;;;12.48;7.47;;;12.40;99.60;;;;;;4990124;28;20080;-76
2021/05/22 11:33:23;;;;;;;10.98;6.88;;;12.30;99.70;;;;;;4994433;28;20393;-76
2021/05/22 11:35:52;;;;;;;13.60;6.80;;;12.20;99.60;;;;;;4992137;28;20120;-75
2021/05/22 11:38:21;;;;;;;12.00;6.28;;;12.10;99.60;;;;;;4990146;28;20515;-75
2021/05/22 11:40:49;;;;;;;9.25;5.30;;;12.10;99.60;;;;;;4990643;28;20038;-73
2021/05/22 11:43:29;;;;;;;9.85;5.72;;;12.10;99.60;;;;;;4993180;28;20029;-75
2021/05/22 11:46:00;;;;;;;8.02;4.65;;;12.00;99.50;;;;;;4994152;28;20118;-76
2021/05/22 11:48:44;;;;;;;9.13;5.25;;;12.00;99.60;;;;;;4993631;28;20037;-75
2021/05/22 11:51:25;;;;;;;8.52;4.72;;;11.90;99.70;;;;;;4994833;28;20041;-74
2021/05/22 11:53:58;;;;;;;7.03;4.55;;;11.80;99.60;;;;;;4996138;28;20033;-76
2021/05/22 11:56:29;;;;;;;7.95;4.30;;;11.80;99.60;;;;;;5000915;28;20477;-77
2021/05/22 11:58:58;;;;;;;6.47;4.45;;;11.70;99.70;;;;;;4999520;28;20065;-76
2021/05/22 12:01:35;;;;;;;6.35;4.28;;;11.70;99.80;;;;;;4996246;28;20109;-78
2021/05/22 12:04:11;;;;;;;4.38;3.25;;;11.80;99.90;;;;;;4994129;28;20891;-77
2021/05/22 12:06:40;;;;;;;10.68;3.42;;;11.80;99.90;;;;;;4997197;28;20068;-78
2021/05/22 12:09:08;;;;;;;8.15;3.05;;;11.80;99.80;;;;;;4994482;28;20034;-78
2021/05/22 12:11:41;;;;;;;9.25;3.10;;;11.70;99.80;;;;;;5001771;28;20072;-78
2021/05/22 12:14:09;;;;;;;7.35;4.40;;;11.60;99.70;;;;;;4992743;28;20042;-77
2021/05/22 12:16:37;;;;;;;6.03;4.38;;;11.50;99.60;;;;;;4995358;28;20477;-76
2021/05/22 12:19:13;;;;;;;12.05;3.88;;;11.50;99.50;;;;;;4992800;28;20045;-76
2021/05/22 12:21:46;;;;;;;4.63;3.58;;;11.50;99.80;;;;;;4996299;28;20037;-77
2021/05/22 12:24:14;;;;;;;4.55;3.38;;;11.50;99.90;;;;;;4999340;28;20027;-75
2021/05/22 12:26:52;;;;;;;5.95;2.78;;;11.50;99.90;;;;;;4993367;28;20022;-77
2021/05/22 12:29:21;;;;;;;5.90;2.90;;;11.50;99.90;;;;;;4997587;28;20110;-76
2021/05/22 12:32:02;;;;;;;7.20;3.70;;;11.40;99.90;;;;;;4995508;28;20046;-77
2021/05/22 12:34:34;;;;;;;7.20;3.20;;;11.40;99.90;;;;;;4997816;28;20095;-76
2021/05/22 12:37:11;;;;;;;5.40;3.75;;;11.40;99.90;;;;;;4999430;28;20037;-76
2021/05/22 12:39:42;;;;;;;5.40;3.85;;;11.30;99.80;;;;;;4992508;28;20398;-76
2021/05/22 12:42:23;;;;;;;6.18;3.42;;;11.20;99.90;;;;;;4998872;28;20022;-76
2021/05/22 12:44:57;;;;;;;5.40;3.35;;;11.10;99.80;;;;;;4997500;28;20023;-75
2021/05/22 12:47:41;;;;;;;5.43;3.60;;;11.10;99.80;;;;;;4998068;28;20106;-76
2021/05/22 12:50:11;;;;;;;8.15;3.50;;;11.10;99.50;;;;;;4991126;28;20393;-76
2021/05/22 12:52:58;;;;;;;6.35;3.78;;;11.00;99.30;;;;;;4999265;28;20026;-74
2021/05/22 12:55:39;;;;;;;8.43;3.75;;;10.90;99.20;;;;;;4997298;28;20381;-74
2021/05/22 12:58:24;;;;;;;9.48;4.60;;;10.90;99.60;;;;;;4997072;28;20422;-78
2021/05/22 13:00:52;;;;;;;6.28;3.70;;;10.90;99.80;;;;;;5001517;28;20477;-74
2021/05/22 13:03:38;;;;;;;3.97;3.00;;;10.90;99.90;;;;;;4995601;28;20030;-73
2021/05/22 13:06:05;;;;;;;6.60;3.47;;;10.80;99.90;;;;;;4999582;28;20031;-76